Marseillais 6 — FQSJ — position and weather

sailwx.info

Track history (hours):
 
Tides and Currents Weather Stations Pressure Air Temp Water Temp Dewpoint Dewpoint Depression Visibility Wind Speed Wind Dir Waves Ship Positions

Marseillais 6

Last reported at 2017-Sep-22 01:29 UTC. Time now 2017-Sep-22 10:01 UTC.
Position N 43°26' E 004°54'.

Length 35 m; draft 5 m.

Type: Tug. MMSI: 227016900.

Date/timePositionNaut miles runAvg speedWind from/ knotsBaromVisibWave heightAir tempDewpointWater temp
2017-Sep-22 01:29N 43°26' E 004°54'0 0.0
2017-Sep-21 18:13N 43°26' E 004°54'0 0.0
2017-Sep-21 18:00N 43°26' E 004°54'0 0.0
2017-Sep-21 17:31N 43°26' E 004°54'0 0.0
2017-Sep-21 16:59N 43°26' E 004°54'0 0.0
2017-Sep-21 16:30N 43°26' E 004°54'0 0.0
2017-Sep-21 15:59N 43°26' E 004°54'0 0.0
2017-Sep-21 15:30N 43°26' E 004°54'0 0.0
2017-Sep-21 14:59N 43°26' E 004°54'0 0.0
2017-Sep-21 14:30N 43°26' E 004°54'0 0.0
2017-Sep-21 14:00N 43°26' E 004°54'0 0.0
2017-Sep-21 13:29N 43°26' E 004°54'0 0.0
2017-Sep-21 13:00N 43°26' E 004°54'0 0.0
2017-Sep-21 12:27N 43°26' E 004°54'0 0.0
2017-Sep-21 11:58N 43°26' E 004°54'0 0.0
2017-Sep-21 11:28N 43°26' E 004°54'0 0.0
2017-Sep-21 11:00N 43°26' E 004°54'0 0.0
2017-Sep-21 10:30N 43°26' E 004°54'0 0.0
2017-Sep-21 09:56N 43°26' E 004°54'0 0.0
2017-Sep-21 09:30N 43°26' E 004°54'0 0.0
2017-Sep-21 08:56N 43°26' E 004°54'0 0.0
2017-Sep-21 08:30N 43°26' E 004°54'0 0.0
2017-Sep-21 07:56N 43°26' E 004°54'0 0.0
2017-Sep-21 07:23N 43°26' E 004°54'0 0.0
2017-Sep-21 06:54N 43°26' E 004°54'0 0.0
2017-Sep-21 06:24N 43°26' E 004°54'0 0.0
2017-Sep-21 05:54N 43°26' E 004°54'0 0.0
2017-Sep-21 05:22N 43°26' E 004°54'0 0.0
2017-Sep-21 04:51N 43°26' E 004°54'0 0.0
2017-Sep-21 04:30N 43°26' E 004°54'1 3.0
2017-Sep-21 04:00N 43°24' E 004°54'1 1.3
2017-Sep-21 03:29N 43°25' E 004°54'0 0.3
2017-Sep-21 03:00N 43°25' E 004°54'0 0.3
2017-Sep-21 02:30N 43°24' E 004°54'0 0.8
2017-Sep-21 01:55N 43°24' E 004°54'2 2.5
2017-Sep-21 01:18N 43°26' E 004°54'0 0.0
2017-Sep-21 00:59N 43°26' E 004°54'0 0.0
2017-Sep-21 00:23N 43°26' E 004°54'0 0.0
2017-Sep-20 23:54N 43°26' E 004°54'0 0.0
2017-Sep-20 23:30N 43°26' E 004°54'0 0.0
2017-Sep-20 22:54N 43°26' E 004°54'0 0.0
2017-Sep-20 22:29N 43°26' E 004°54'0 0.0
2017-Sep-20 21:55N 43°26' E 004°54'0 0.0
2017-Sep-20 21:30N 43°26' E 004°54'0 0.0
2017-Sep-20 20:57N 43°26' E 004°54'0 0.0
2017-Sep-20 20:30N 43°26' E 004°54'0 0.0
2017-Sep-20 20:00N 43°26' E 004°54'0 0.0
2017-Sep-20 19:30N 43°26' E 004°54'0 0.0
2017-Sep-20 19:00N 43°26' E 004°54'0 0.0
2017-Sep-20 18:30N 43°26' E 004°54'0 0.0
2017-Sep-20 18:00N 43°26' E 004°54'0 0.0
2017-Sep-20 17:30N 43°26' E 004°54'0 0.0
2017-Sep-20 17:00N 43°26' E 004°54'0 0.0
2017-Sep-20 16:30N 43°26' E 004°54'0 0.0
2017-Sep-20 15:59N 43°26' E 004°54'0 0.0
2017-Sep-20 15:30N 43°26' E 004°54'0 0.0
2017-Sep-20 15:00N 43°26' E 004°54'0 0.0
2017-Sep-20 13:58N 43°26' E 004°54'0 0.0
2017-Sep-20 13:30N 43°26' E 004°54'0 0.0
2017-Sep-20 13:00N 43°26' E 004°54'0 0.9
2017-Sep-20 12:30N 43°25' E 004°53'1 1.5
2017-Sep-20 12:00N 43°26' E 004°52'1 2.1
2017-Sep-20 11:30N 43°26' E 004°54'0 0.0
2017-Sep-20 10:59N 43°26' E 004°54'2 3.6
2017-Sep-20 10:30N 43°24' E 004°53'2 4.2
2017-Sep-20 10:00N 43°25' E 004°50'1 1.3
2017-Sep-20 09:30N 43°24' E 004°51'1 1.9
2017-Sep-20 09:00N 43°24' E 004°52'510.0
2017-Sep-20 08:31N 43°24' E 004°59'1 1.2
2017-Sep-20 08:00N 43°24' E 004°60'1 1.3
2017-Sep-20 07:30N 43°24' E 004°59'2 4.3
2017-Sep-20 07:01N 43°24' E 004°56'2 4.7
2017-Sep-20 06:29N 43°26' E 004°54'0 0.0
2017-Sep-20 06:00N 43°26' E 004°54'0 0.0
2017-Sep-20 05:20N 43°26' E 004°54'0 0.0
2017-Sep-20 05:00N 43°26' E 004°54'0 0.0
2017-Sep-20 04:30N 43°26' E 004°54'0 0.0
2017-Sep-20 03:58N 43°26' E 004°54'0 0.0
2017-Sep-20 03:29N 43°26' E 004°54'0 0.0
2017-Sep-20 02:59N 43°26' E 004°54'0 0.0
2017-Sep-20 02:29N 43°26' E 004°54'0 0.0
2017-Sep-20 01:59N 43°26' E 004°54'0 0.0
2017-Sep-20 01:30N 43°26' E 004°54'0 0.0
2017-Sep-20 01:00N 43°26' E 004°54'2 5.0
2017-Sep-20 00:30N 43°24' E 004°56'3 5.4
2017-Sep-20 00:00N 43°24' E 004°60'1 1.9
2017-Sep-19 23:30N 43°23' E 004°59'4 8.1
2017-Sep-19 22:59N 43°24' E 004°53'2 3.8
2017-Sep-19 22:30N 43°25' E 004°51'0 0.5
2017-Sep-19 22:00N 43°25' E 004°51'2 3.7
2017-Sep-19 21:30N 43°24' E 004°53'2 3.3
2017-Sep-19 21:00N 43°26' E 004°54'0 0.0
2017-Sep-19 19:53N 43°26' E 004°54'0 0.0
2017-Sep-19 19:28N 43°26' E 004°54'0 0.0
2017-Sep-19 18:56N 43°26' E 004°54'0 0.0
2017-Sep-19 18:30N 43°26' E 004°54'0 0.6
2017-Sep-19 18:00N 43°25' E 004°54'2 4.2
2017-Sep-19 17:30N 43°24' E 004°51'0 0.1
2017-Sep-19 17:00N 43°25' E 004°51'1 3.0
2017-Sep-19 16:30N 43°24' E 004°53'2 3.0
2017-Sep-19 16:00N 43°26' E 004°54'0 0.0
2017-Sep-19 15:30N 43°26' E 004°54'0 0.0
2017-Sep-19 14:58N 43°26' E 004°54'0 0.0
2017-Sep-19 14:30N 43°26' E 004°54'0 0.0
2017-Sep-19 14:00N 43°26' E 004°54'2 3.1
2017-Sep-19 13:31N 43°24' E 004°54'4 8.6
2017-Sep-19 13:01N 43°24' E 004°59'1 1.7
2017-Sep-19 12:30N 43°23' E 004°59'4 8.6
2017-Sep-19 12:00N 43°25' E 004°53'0 0.9
2017-Sep-19 11:30N 43°26' E 004°54'0 0.0
2017-Sep-19 10:57N 43°26' E 004°54'0 0.0
2017-Sep-19 10:30N 43°26' E 004°54'0 0.0
2017-Sep-19 10:00N 43°26' E 004°54'0 0.0
2017-Sep-19 09:30N 43°26' E 004°54'0 0.0
2017-Sep-19 09:00N 43°26' E 004°54'0 0.0
2017-Sep-19 08:26N 43°26' E 004°54'0 0.0
2017-Sep-19 07:56N 43°26' E 004°54'0 0.0
2017-Sep-19 06:47N 43°26' E 004°54'0 0.0
2017-Sep-19 05:04N 43°26' E 004°54'0 0.0
2017-Sep-19 04:45N 43°26' E 004°54'0 0.0
2017-Sep-19 04:23N 43°26' E 004°54'0 0.0
2017-Sep-19 03:57N 43°26' E 004°54'2 5.5
2017-Sep-19 03:31N 43°25' E 004°51'0 0.4
2017-Sep-19 03:00N 43°25' E 004°51'1 2.2
2017-Sep-19 02:31N 43°24' E 004°53'2 3.5
2017-Sep-19 02:00N 43°26' E 004°54'0 0.0
2017-Sep-19 01:23N 43°26' E 004°54'0 0.0
2017-Sep-19 01:00N 43°26' E 004°54'0 0.0
2017-Sep-19 00:27N 43°26' E 004°54'0 0.0
2017-Sep-18 23:59N 43°26' E 004°54'0 0.0
2017-Sep-18 23:27N 43°26' E 004°54'0 0.0
2017-Sep-18 22:49N 43°26' E 004°54'0 0.1
2017-Sep-18 22:30N 43°26' E 004°54'0 0.0
2017-Sep-18 21:52N 43°26' E 004°54'0 0.0
2017-Sep-18 14:56N 43°26' E 004°54'1 3.0
2017-Sep-18 14:30N 43°24' E 004°53'0 0.2
2017-Sep-18 14:00N 43°24' E 004°53'1 0.9
2017-Sep-18 12:36N 43°26' E 004°54'0 0.0
2017-Sep-18 12:30N 43°26' E 004°54'0 0.0
2017-Sep-18 11:14N 43°26' E 004°54'0 0.0
2017-Sep-18 11:00N 43°26' E 004°54'0 0.0
2017-Sep-18 10:30N 43°26' E 004°54'0 0.0
2017-Sep-18 09:49N 43°26' E 004°54'0 0.0
2017-Sep-18 09:11N 43°26' E 004°54'0 0.0
2017-Sep-18 08:54N 43°26' E 004°54'0 0.0
2017-Sep-18 08:30N 43°26' E 004°54'0 0.0
2017-Sep-18 08:00N 43°26' E 004°54'0 0.0
2017-Sep-18 07:30N 43°26' E 004°54'0 0.0
2017-Sep-18 07:00N 43°26' E 004°54'0 0.0
2017-Sep-18 06:30N 43°26' E 004°54'0 0.0
2017-Sep-18 05:57N 43°26' E 004°54'0 0.0
2017-Sep-18 05:30N 43°26' E 004°54'0 0.0
2017-Sep-18 05:00N 43°26' E 004°54'0 0.0
2017-Sep-18 04:30N 43°26' E 004°54'0 0.0
2017-Sep-18 03:59N 43°26' E 004°54'0 0.0
2017-Sep-18 03:27N 43°26' E 004°54'0 0.0
2017-Sep-18 02:53N 43°26' E 004°54'0 0.0
2017-Sep-18 02:25N 43°26' E 004°54'0 0.0
2017-Sep-18 01:59N 43°26' E 004°54'0 0.0
2017-Sep-18 01:30N 43°26' E 004°54'0 0.0
2017-Sep-18 01:00N 43°26' E 004°54'0 0.0
2017-Sep-18 00:26N 43°26' E 004°54'0 0.0
2017-Sep-18 00:00N 43°26' E 004°54'2 3.9
2017-Sep-17 23:27N 43°24' E 004°51'1 1.5
2017-Sep-17 23:00N 43°25' E 004°51'2 3.6
2017-Sep-17 22:30N 43°25' E 004°53'1 1.8
2017-Sep-17 22:00N 43°26' E 004°54'0 0.0
2017-Sep-17 21:30N 43°26' E 004°54'0 0.0
2017-Sep-17 21:00N 43°26' E 004°54'0 0.0
2017-Sep-17 20:29N 43°26' E 004°54'0 0.0
2017-Sep-17 20:00N 43°26' E 004°54'0 0.0
2017-Sep-17 19:29N 43°26' E 004°54'0 0.0
2017-Sep-17 18:59N 43°26' E 004°54'0 0.0
2017-Sep-17 18:30N 43°26' E 004°54'0 0.0
2017-Sep-17 18:00N 43°26' E 004°54'0 0.0
2017-Sep-17 17:29N 43°26' E 004°54'0 0.0
2017-Sep-17 16:59N 43°26' E 004°54'0 0.0
2017-Sep-17 16:29N 43°26' E 004°54'0 0.0
2017-Sep-17 15:46N 43°26' E 004°54'0 0.0
2017-Sep-17 15:29N 43°26' E 004°54'0 0.0
2017-Sep-17 14:59N 43°26' E 004°54'0 0.0
2017-Sep-17 14:15N 43°26' E 004°54'0 0.0
2017-Sep-17 14:00N 43°26' E 004°54'0 0.0
2017-Sep-17 13:29N 43°26' E 004°54'0 0.0
2017-Sep-17 12:58N 43°26' E 004°54'0 0.0
2017-Sep-17 12:28N 43°26' E 004°54'0 0.0
2017-Sep-17 12:00N 43°26' E 004°54'0 0.0
2017-Sep-17 11:29N 43°26' E 004°54'0 0.0
2017-Sep-17 10:59N 43°26' E 004°54'0 0.0
2017-Sep-17 10:30N 43°26' E 004°54'0 0.1
2017-Sep-17 10:00N 43°26' E 004°54'1 2.5
2017-Sep-17 09:30N 43°24' E 004°53'1 2.6
2017-Sep-17 09:01N 43°24' E 004°55'1 2.0
2017-Sep-17 08:30N 43°24' E 004°54'0 0.9
2017-Sep-17 08:01N 43°24' E 004°53'0 0.0
2017-Sep-17 07:30N 43°24' E 004°53'1 2.3
2017-Sep-17 06:58N 43°26' E 004°54'0 0.0
2017-Sep-17 06:30N 43°26' E 004°54'0 0.0
2017-Sep-17 06:00N 43°26' E 004°54'0 0.0
2017-Sep-17 05:30N 43°26' E 004°54'0 0.0
2017-Sep-17 04:58N 43°26' E 004°54'0 0.0
2017-Sep-17 04:30N 43°26' E 004°54'0 0.0
2017-Sep-17 04:00N 43°26' E 004°54'0 0.0
2017-Sep-17 03:25N 43°26' E 004°54'0 0.0
2017-Sep-17 02:57N 43°26' E 004°54'0 0.0
2017-Sep-17 02:28N 43°26' E 004°54'0 0.0
2017-Sep-17 01:54N 43°26' E 004°54'2 4.4
2017-Sep-17 01:30N 43°24' E 004°53'2 3.2
2017-Sep-17 01:00N 43°25' E 004°51'2 4.5
2017-Sep-17 00:30N 43°26' E 004°54'0 0.2
2017-Sep-16 23:49N 43°26' E 004°54'0 0.0
2017-Sep-16 23:29N 43°26' E 004°54'0 0.0
2017-Sep-16 22:59N 43°26' E 004°54'0 0.0
2017-Sep-16 22:24N 43°26' E 004°54'0 0.0
2017-Sep-16 21:58N 43°26' E 004°54'0 0.0
2017-Sep-16 21:28N 43°26' E 004°54'0 0.0
2017-Sep-16 20:58N 43°26' E 004°54'0 0.0
2017-Sep-16 20:30N 43°26' E 004°54'0 0.0
2017-Sep-16 19:59N 43°26' E 004°54'1 2.4
2017-Sep-16 19:30N 43°25' E 004°52'0 0.7
2017-Sep-16 18:59N 43°26' E 004°53'1 2.1
2017-Sep-16 18:30N 43°26' E 004°54'0 0.0
2017-Sep-16 18:00N 43°26' E 004°54'0 0.0
2017-Sep-16 17:29N 43°26' E 004°54'0 0.0
2017-Sep-16 17:00N 43°26' E 004°54'0 0.0
2017-Sep-16 16:30N 43°26' E 004°54'0 0.0
2017-Sep-16 16:00N 43°26' E 004°54'0 0.0
2017-Sep-16 15:30N 43°26' E 004°54'0 0.0
2017-Sep-16 15:00N 43°26' E 004°54'0 0.0
2017-Sep-16 14:30N 43°26' E 004°54'0 0.0
2017-Sep-16 14:00N 43°26' E 004°54'0 0.0
2017-Sep-16 13:25N 43°26' E 004°54'0 0.0
2017-Sep-16 12:58N 43°26' E 004°54'0 0.0
2017-Sep-16 12:30N 43°26' E 004°54'0 0.0
2017-Sep-16 11:51N 43°26' E 004°54'0 0.0
2017-Sep-16 11:30N 43°26' E 004°54'0 0.0
2017-Sep-16 10:59N 43°26' E 004°54'0 0.0
2017-Sep-16 10:29N 43°26' E 004°54'0 0.0
2017-Sep-16 09:58N 43°26' E 004°54'0 0.0
2017-Sep-16 09:28N 43°26' E 004°54'0 0.0
2017-Sep-16 08:59N 43°26' E 004°54'0 0.0
2017-Sep-16 08:29N 43°26' E 004°54'0 0.0
2017-Sep-16 07:59N 43°26' E 004°54'0 0.0
2017-Sep-16 07:30N 43°26' E 004°54'0 0.0
2017-Sep-16 06:59N 43°26' E 004°54'0 0.0
2017-Sep-16 06:30N 43°26' E 004°54'0 0.0
2017-Sep-16 06:00N 43°26' E 004°54'0 0.0
2017-Sep-16 05:30N 43°26' E 004°54'0 0.0
2017-Sep-16 05:00N 43°26' E 004°54'0 0.0
2017-Sep-16 04:30N 43°26' E 004°54'0 0.0
2017-Sep-16 04:00N 43°26' E 004°54'0 0.0
2017-Sep-16 03:29N 43°26' E 004°54'0 0.0
2017-Sep-16 03:00N 43°26' E 004°54'0 0.0
2017-Sep-16 02:30N 43°26' E 004°54'0 0.0
2017-Sep-16 02:00N 43°26' E 004°54'0 0.0
2017-Sep-16 01:25N 43°26' E 004°54'0 0.0
2017-Sep-16 01:00N 43°26' E 004°54'1 2.1
2017-Sep-16 00:30N 43°25' E 004°53'2 3.1
2017-Sep-16 00:01N 43°25' E 004°51'0 0.8
2017-Sep-15 23:30N 43°24' E 004°51'1 2.7
2017-Sep-15 23:01N 43°24' E 004°53'2 3.2
2017-Sep-15 22:30N 43°26' E 004°54'0 0.0
2017-Sep-15 21:58N 43°26' E 004°54'0 0.0
2017-Sep-15 21:29N 43°26' E 004°54'0 0.0
2017-Sep-15 20:59N 43°26' E 004°54'0 0.0
2017-Sep-15 20:30N 43°26' E 004°54'0 0.0
2017-Sep-15 19:58N 43°26' E 004°54'0 0.0
2017-Sep-15 19:29N 43°26' E 004°54'0 0.0
2017-Sep-15 18:44N 43°26' E 004°54'0 0.0
2017-Sep-15 18:28N 43°26' E 004°54'0 0.0
2017-Sep-15 18:00N 43°26' E 004°54'0 0.0
2017-Sep-15 17:30N 43°26' E 004°54'0 0.0
2017-Sep-15 17:00N 43°26' E 004°54'0 0.0
2017-Sep-15 16:30N 43°26' E 004°54'0 0.0
2017-Sep-15 16:00N 43°26' E 004°54'0 0.0
2017-Sep-15 15:30N 43°26' E 004°54'0 0.0
2017-Sep-15 14:38N 43°26' E 004°54'1 5.5
2017-Sep-15 14:31N 43°25' E 004°53'1 1.6
2017-Sep-15 14:01N 43°24' E 004°53'0 0.5
2017-Sep-15 13:31N 43°24' E 004°53'1 2.6
2017-Sep-15 13:00N 43°24' E 004°55'2 4.0
2017-Sep-15 12:30N 43°26' E 004°54'0 0.0
2017-Sep-15 11:59N 43°26' E 004°54'2 5.1
2017-Sep-15 11:30N 43°25' E 004°51'0 0.1
2017-Sep-15 11:00N 43°25' E 004°51'2 4.8
2017-Sep-15 10:30N 43°26' E 004°54'0 0.0
2017-Sep-15 09:54N 43°26' E 004°54'0 1.1
2017-Sep-15 09:30N 43°25' E 004°53'0 0.3
2017-Sep-15 09:00N 43°26' E 004°53'0 0.1
2017-Sep-15 08:31N 43°26' E 004°53'0 0.8
2017-Sep-15 08:00N 43°26' E 004°54'0 0.0
2017-Sep-15 07:30N 43°26' E 004°54'0 0.0
2017-Sep-15 06:59N 43°26' E 004°54'0 0.0
2017-Sep-15 06:30N 43°26' E 004°54'0 0.0
2017-Sep-15 06:00N 43°26' E 004°54'0 0.0
2017-Sep-15 05:29N 43°26' E 004°54'0 0.0
2017-Sep-15 04:57N 43°26' E 004°54'0 0.0
2017-Sep-15 04:29N 43°26' E 004°54'0 0.0
2017-Sep-15 03:57N 43°26' E 004°54'0 0.0
2017-Sep-15 03:29N 43°26' E 004°54'0 0.0
2017-Sep-15 02:54N 43°26' E 004°54'0 0.0
2017-Sep-15 02:29N 43°26' E 004°54'0 0.0
2017-Sep-15 01:57N 43°26' E 004°54'0 0.0
2017-Sep-15 01:30N 43°26' E 004°54'0 0.0
2017-Sep-15 00:56N 43°26' E 004°54'0 0.0
2017-Sep-15 00:30N 43°26' E 004°54'0 0.0
2017-Sep-14 23:59N 43°26' E 004°54'0 0.0
2017-Sep-14 23:28N 43°26' E 004°54'0 0.0
2017-Sep-14 22:53N 43°26' E 004°54'0 0.0
2017-Sep-14 22:24N 43°26' E 004°54'0 0.0
2017-Sep-14 21:38N 43°26' E 004°54'0 0.0
2017-Sep-14 21:11N 43°26' E 004°54'0 0.0
2017-Sep-14 21:00N 43°26' E 004°54'0 0.0
2017-Sep-14 20:30N 43°26' E 004°54'0 0.0
2017-Sep-14 20:00N 43°26' E 004°54'0 0.0
2017-Sep-14 19:15N 43°26' E 004°54'0 0.0
2017-Sep-14 18:58N 43°26' E 004°54'0 0.0
2017-Sep-14 18:30N 43°26' E 004°54'0 0.0
2017-Sep-14 17:56N 43°26' E 004°54'0 0.0
2017-Sep-14 17:30N 43°26' E 004°54'0 0.0
2017-Sep-14 15:42N 43°26' E 004°54'0 0.0
2017-Sep-14 14:02N 43°26' E 004°54'0 0.0
2017-Sep-14 13:56N 43°26' E 004°54'0 0.0
2017-Sep-14 13:24N 43°26' E 004°54'0 0.0
2017-Sep-14 12:56N 43°26' E 004°54'0 0.0
2017-Sep-14 11:50N 43°26' E 004°54'0 0.0
2017-Sep-14 11:30N 43°26' E 004°54'0 0.0
2017-Sep-14 10:48N 43°26' E 004°54'0 0.0
2017-Sep-14 10:28N 43°26' E 004°54'0 0.0
2017-Sep-14 09:59N 43°26' E 004°54'0 0.0
2017-Sep-14 09:23N 43°26' E 004°54'0 0.0
2017-Sep-14 09:00N 43°26' E 004°54'0 0.0
2017-Sep-14 08:30N 43°26' E 004°54'0 0.0
2017-Sep-14 07:58N 43°26' E 004°54'0 0.0
2017-Sep-14 07:30N 43°26' E 004°54'0 0.0
2017-Sep-14 07:01N 43°26' E 004°54'0 0.0
2017-Sep-14 06:30N 43°26' E 004°54'0 0.0
2017-Sep-14 05:45N 43°26' E 004°54'0 0.1
2017-Sep-14 05:29N 43°26' E 004°54'1 2.2
2017-Sep-14 05:01N 43°26' E 004°52'2 3.7
2017-Sep-14 04:31N 43°24' E 004°54'2 3.2
2017-Sep-14 04:00N 43°26' E 004°54'0 0.0
2017-Sep-14 03:30N 43°26' E 004°54'0 0.0
2017-Sep-14 03:00N 43°26' E 004°54'0 0.0
2017-Sep-14 02:30N 43°26' E 004°54'0 0.0
2017-Sep-14 02:00N 43°26' E 004°54'0 0.0
2017-Sep-14 01:29N 43°26' E 004°54'0 0.0
2017-Sep-14 01:00N 43°26' E 004°54'0 0.0
2017-Sep-14 00:30N 43°26' E 004°54'0 0.0
2017-Sep-13 23:58N 43°26' E 004°54'0 0.0
2017-Sep-13 23:30N 43°26' E 004°54'0 0.0
2017-Sep-13 23:00N 43°26' E 004°54'0 0.0
2017-Sep-13 22:30N 43°26' E 004°54'0 0.0
2017-Sep-13 22:00N 43°26' E 004°54'0 0.0
2017-Sep-13 21:30N 43°26' E 004°54'0 0.0
2017-Sep-13 21:00N 43°26' E 004°54'0 0.0
2017-Sep-13 20:30N 43°26' E 004°54'0 0.0
2017-Sep-13 19:59N 43°26' E 004°54'0 0.0
2017-Sep-13 19:30N 43°26' E 004°54'0 0.0
2017-Sep-13 18:58N 43°26' E 004°54'0 0.0
2017-Sep-13 18:30N 43°26' E 004°54'0 0.0
2017-Sep-13 18:00N 43°26' E 004°54'0 0.0
2017-Sep-13 17:30N 43°26' E 004°54'0 0.0
2017-Sep-13 17:00N 43°26' E 004°54'0 0.0
2017-Sep-13 16:31N 43°26' E 004°54'0 0.0
2017-Sep-13 16:00N 43°26' E 004°54'0 0.0
2017-Sep-13 15:30N 43°26' E 004°54'0 0.0
2017-Sep-13 15:00N 43°26' E 004°54'0 0.0
2017-Sep-13 14:30N 43°26' E 004°54'0 0.0
2017-Sep-13 14:00N 43°26' E 004°54'0 0.0
2017-Sep-13 13:30N 43°26' E 004°54'0 0.0
2017-Sep-13 13:00N 43°26' E 004°54'0 0.0
2017-Sep-13 12:31N 43°26' E 004°54'0 0.0
2017-Sep-13 12:01N 43°26' E 004°54'0 0.0
2017-Sep-13 11:30N 43°26' E 004°54'0 0.0
2017-Sep-13 11:00N 43°26' E 004°54'0 0.0
2017-Sep-13 10:30N 43°26' E 004°54'0 0.0
2017-Sep-13 10:00N 43°26' E 004°54'0 0.0
2017-Sep-13 09:30N 43°26' E 004°54'0 0.0
2017-Sep-13 09:00N 43°26' E 004°54'0 0.0
2017-Sep-13 08:30N 43°26' E 004°54'0 0.0
2017-Sep-13 08:00N 43°26' E 004°54'0 0.0
2017-Sep-13 07:30N 43°26' E 004°54'0 0.0
2017-Sep-13 07:00N 43°26' E 004°54'0 0.0
2017-Sep-13 06:30N 43°26' E 004°54'0 0.0
2017-Sep-13 06:00N 43°26' E 004°54'0 0.0
2017-Sep-13 05:30N 43°26' E 004°54'0 0.0
2017-Sep-13 05:00N 43°26' E 004°54'0 0.0
2017-Sep-13 04:30N 43°26' E 004°54'0 0.0
2017-Sep-13 04:00N 43°26' E 004°54'0 0.0
2017-Sep-13 03:30N 43°26' E 004°54'0 0.0
2017-Sep-13 03:00N 43°26' E 004°54'0 0.0
2017-Sep-13 02:30N 43°26' E 004°54'0 0.0
2017-Sep-13 02:00N 43°26' E 004°54'0 0.0
2017-Sep-13 01:30N 43°26' E 004°54'0 0.0
2017-Sep-13 01:00N 43°26' E 004°54'0 0.0
2017-Sep-13 00:30N 43°26' E 004°54'2 3.9
2017-Sep-13 00:00N 43°24' E 004°52'2 3.9
2017-Sep-12 23:30N 43°25' E 004°50'2 4.6
2017-Sep-12 23:00N 43°25' E 004°53'1 1.4
2017-Sep-12 22:29N 43°26' E 004°54'0 0.0
2017-Sep-12 22:00N 43°26' E 004°54'0 0.0
2017-Sep-12 21:30N 43°26' E 004°54'0 0.0
2017-Sep-12 21:01N 43°26' E 004°54'0 0.0
2017-Sep-12 20:30N 43°26' E 004°54'2 4.0
2017-Sep-12 20:00N 43°24' E 004°52'2 4.1
2017-Sep-12 19:30N 43°26' E 004°54'0 0.0
2017-Sep-12 19:01N 43°26' E 004°54'0 0.0
2017-Sep-12 18:31N 43°26' E 004°54'0 0.0
2017-Sep-12 17:59N 43°26' E 004°54'2 3.4
2017-Sep-12 17:30N 43°24' E 004°53'2 3.3
2017-Sep-12 17:01N 43°25' E 004°51'2 4.8
2017-Sep-12 16:31N 43°26' E 004°54'0 0.0
2017-Sep-12 16:00N 43°26' E 004°54'0 0.0
2017-Sep-12 15:30N 43°26' E 004°54'0 0.0
2017-Sep-12 15:00N 43°26' E 004°54'2 3.7
2017-Sep-12 14:30N 43°24' E 004°53'2 3.5
2017-Sep-12 14:00N 43°24' E 004°55'3 5.7
2017-Sep-12 13:30N 43°24' E 004°59'0 0.0
2017-Sep-12 13:00N 43°24' E 004°59'0 0.0
2017-Sep-12 12:30N 43°24' E 004°59'0 0.0
2017-Sep-12 12:00N 43°24' E 004°59'0 0.0
2017-Sep-12 11:30N 43°24' E 004°59'0 0.0
2017-Sep-12 11:00N 43°24' E 004°59'0 0.0
2017-Sep-12 10:30N 43°24' E 004°59'0 0.0
2017-Sep-12 10:00N 43°24' E 004°59'0 0.0
2017-Sep-12 09:30N 43°24' E 004°59'0 0.0
2017-Sep-12 09:00N 43°24' E 004°59'0 0.0
2017-Sep-12 08:30N 43°24' E 004°59'0 0.0
2017-Sep-12 08:00N 43°24' E 004°59'0 0.0
2017-Sep-12 07:30N 43°24' E 004°59'0 0.0
2017-Sep-12 07:00N 43°24' E 004°59'0 0.0
2017-Sep-12 06:30N 43°24' E 004°59'0 0.0
2017-Sep-12 06:00N 43°24' E 004°59'0 0.0
2017-Sep-12 05:30N 43°24' E 004°59'0 0.0
2017-Sep-12 05:00N 43°24' E 004°59'0 0.0
2017-Sep-12 04:30N 43°24' E 004°59'0 0.0
2017-Sep-12 04:00N 43°24' E 004°59'0 0.0
2017-Sep-12 03:30N 43°24' E 004°59'0 0.0
2017-Sep-12 03:00N 43°24' E 004°59'1 1.2
2017-Sep-12 02:31N 43°24' E 004°60'1 1.2
2017-Sep-12 02:00N 43°24' E 004°59'0 0.0
2017-Sep-12 01:30N 43°24' E 004°59'  
Track history (hours):
 
Tides and Currents Weather Stations Pressure Air Temp Water Temp Dewpoint Dewpoint Depression Visibility Wind Speed Wind Dir Waves Ship Positions

Marseillais 6

Last reported at 2017-Sep-22 01:29 UTC. Time now 2017-Sep-22 10:01 UTC.
Position N 43°26' E 004°54'.

Length 35 m; draft 5 m.

Type: Tug. MMSI: 227016900.

Date/timePositionNaut miles runAvg speedWind from/ knotsBaromVisibWave heightAir tempDewpointWater temp
2017-Sep-22 01:29N 43°26' E 004°54'0 0.0
2017-Sep-21 18:13N 43°26' E 004°54'0 0.0
2017-Sep-21 18:00N 43°26' E 004°54'0 0.0
2017-Sep-21 17:31N 43°26' E 004°54'0 0.0
2017-Sep-21 16:59N 43°26' E 004°54'0 0.0
2017-Sep-21 16:30N 43°26' E 004°54'0 0.0
2017-Sep-21 15:59N 43°26' E 004°54'0 0.0
2017-Sep-21 15:30N 43°26' E 004°54'0 0.0
2017-Sep-21 14:59N 43°26' E 004°54'0 0.0
2017-Sep-21 14:30N 43°26' E 004°54'0 0.0
2017-Sep-21 14:00N 43°26' E 004°54'0 0.0
2017-Sep-21 13:29N 43°26' E 004°54'0 0.0
2017-Sep-21 13:00N 43°26' E 004°54'0 0.0
2017-Sep-21 12:27N 43°26' E 004°54'0 0.0
2017-Sep-21 11:58N 43°26' E 004°54'0 0.0
2017-Sep-21 11:28N 43°26' E 004°54'0 0.0
2017-Sep-21 11:00N 43°26' E 004°54'0 0.0
2017-Sep-21 10:30N 43°26' E 004°54'0 0.0
2017-Sep-21 09:56N 43°26' E 004°54'0 0.0
2017-Sep-21 09:30N 43°26' E 004°54'0 0.0
2017-Sep-21 08:56N 43°26' E 004°54'0 0.0
2017-Sep-21 08:30N 43°26' E 004°54'0 0.0
2017-Sep-21 07:56N 43°26' E 004°54'0 0.0
2017-Sep-21 07:23N 43°26' E 004°54'0 0.0
2017-Sep-21 06:54N 43°26' E 004°54'0 0.0
2017-Sep-21 06:24N 43°26' E 004°54'0 0.0
2017-Sep-21 05:54N 43°26' E 004°54'0 0.0
2017-Sep-21 05:22N 43°26' E 004°54'0 0.0
2017-Sep-21 04:51N 43°26' E 004°54'0 0.0
2017-Sep-21 04:30N 43°26' E 004°54'1 3.0
2017-Sep-21 04:00N 43°24' E 004°54'1 1.3
2017-Sep-21 03:29N 43°25' E 004°54'0 0.3
2017-Sep-21 03:00N 43°25' E 004°54'0 0.3
2017-Sep-21 02:30N 43°24' E 004°54'0 0.8
2017-Sep-21 01:55N 43°24' E 004°54'2 2.5
2017-Sep-21 01:18N 43°26' E 004°54'0 0.0
2017-Sep-21 00:59N 43°26' E 004°54'0 0.0
2017-Sep-21 00:23N 43°26' E 004°54'0 0.0
2017-Sep-20 23:54N 43°26' E 004°54'0 0.0
2017-Sep-20 23:30N 43°26' E 004°54'0 0.0
2017-Sep-20 22:54N 43°26' E 004°54'0 0.0
2017-Sep-20 22:29N 43°26' E 004°54'0 0.0
2017-Sep-20 21:55N 43°26' E 004°54'0 0.0
2017-Sep-20 21:30N 43°26' E 004°54'0 0.0
2017-Sep-20 20:57N 43°26' E 004°54'0 0.0
2017-Sep-20 20:30N 43°26' E 004°54'0 0.0
2017-Sep-20 20:00N 43°26' E 004°54'0 0.0
2017-Sep-20 19:30N 43°26' E 004°54'0 0.0
2017-Sep-20 19:00N 43°26' E 004°54'0 0.0
2017-Sep-20 18:30N 43°26' E 004°54'0 0.0
2017-Sep-20 18:00N 43°26' E 004°54'0 0.0
2017-Sep-20 17:30N 43°26' E 004°54'0 0.0
2017-Sep-20 17:00N 43°26' E 004°54'0 0.0
2017-Sep-20 16:30N 43°26' E 004°54'0 0.0
2017-Sep-20 15:59N 43°26' E 004°54'0 0.0
2017-Sep-20 15:30N 43°26' E 004°54'0 0.0
2017-Sep-20 15:00N 43°26' E 004°54'0 0.0
2017-Sep-20 13:58N 43°26' E 004°54'0 0.0
2017-Sep-20 13:30N 43°26' E 004°54'0 0.0
2017-Sep-20 13:00N 43°26' E 004°54'0 0.9
2017-Sep-20 12:30N 43°25' E 004°53'1 1.5
2017-Sep-20 12:00N 43°26' E 004°52'1 2.1
2017-Sep-20 11:30N 43°26' E 004°54'0 0.0
2017-Sep-20 10:59N 43°26' E 004°54'2 3.6
2017-Sep-20 10:30N 43°24' E 004°53'2 4.2
2017-Sep-20 10:00N 43°25' E 004°50'1 1.3
2017-Sep-20 09:30N 43°24' E 004°51'1 1.9
2017-Sep-20 09:00N 43°24' E 004°52'510.0
2017-Sep-20 08:31N 43°24' E 004°59'1 1.2
2017-Sep-20 08:00N 43°24' E 004°60'1 1.3
2017-Sep-20 07:30N 43°24' E 004°59'2 4.3
2017-Sep-20 07:01N 43°24' E 004°56'2 4.7
2017-Sep-20 06:29N 43°26' E 004°54'0 0.0
2017-Sep-20 06:00N 43°26' E 004°54'0 0.0
2017-Sep-20 05:20N 43°26' E 004°54'0 0.0
2017-Sep-20 05:00N 43°26' E 004°54'0 0.0
2017-Sep-20 04:30N 43°26' E 004°54'0 0.0
2017-Sep-20 03:58N 43°26' E 004°54'0 0.0
2017-Sep-20 03:29N 43°26' E 004°54'0 0.0
2017-Sep-20 02:59N 43°26' E 004°54'0 0.0
2017-Sep-20 02:29N 43°26' E 004°54'0 0.0
2017-Sep-20 01:59N 43°26' E 004°54'0 0.0
2017-Sep-20 01:30N 43°26' E 004°54'0 0.0
2017-Sep-20 01:00N 43°26' E 004°54'2 5.0
2017-Sep-20 00:30N 43°24' E 004°56'3 5.4
2017-Sep-20 00:00N 43°24' E 004°60'1 1.9
2017-Sep-19 23:30N 43°23' E 004°59'4 8.1
2017-Sep-19 22:59N 43°24' E 004°53'2 3.8
2017-Sep-19 22:30N 43°25' E 004°51'0 0.5
2017-Sep-19 22:00N 43°25' E 004°51'2 3.7
2017-Sep-19 21:30N 43°24' E 004°53'2 3.3
2017-Sep-19 21:00N 43°26' E 004°54'0 0.0
2017-Sep-19 19:53N 43°26' E 004°54'0 0.0
2017-Sep-19 19:28N 43°26' E 004°54'0 0.0
2017-Sep-19 18:56N 43°26' E 004°54'0 0.0
2017-Sep-19 18:30N 43°26' E 004°54'0 0.6
2017-Sep-19 18:00N 43°25' E 004°54'2 4.2
2017-Sep-19 17:30N 43°24' E 004°51'0 0.1
2017-Sep-19 17:00N 43°25' E 004°51'1 3.0
2017-Sep-19 16:30N 43°24' E 004°53'2 3.0
2017-Sep-19 16:00N 43°26' E 004°54'0 0.0
2017-Sep-19 15:30N 43°26' E 004°54'0 0.0
2017-Sep-19 14:58N 43°26' E 004°54'0 0.0
2017-Sep-19 14:30N 43°26' E 004°54'0 0.0
2017-Sep-19 14:00N 43°26' E 004°54'2 3.1
2017-Sep-19 13:31N 43°24' E 004°54'4 8.6
2017-Sep-19 13:01N 43°24' E 004°59'1 1.7
2017-Sep-19 12:30N 43°23' E 004°59'4 8.6
2017-Sep-19 12:00N 43°25' E 004°53'0 0.9
2017-Sep-19 11:30N 43°26' E 004°54'0 0.0
2017-Sep-19 10:57N 43°26' E 004°54'0 0.0
2017-Sep-19 10:30N 43°26' E 004°54'0 0.0
2017-Sep-19 10:00N 43°26' E 004°54'0 0.0
2017-Sep-19 09:30N 43°26' E 004°54'0 0.0
2017-Sep-19 09:00N 43°26' E 004°54'0 0.0
2017-Sep-19 08:26N 43°26' E 004°54'0 0.0
2017-Sep-19 07:56N 43°26' E 004°54'0 0.0
2017-Sep-19 06:47N 43°26' E 004°54'0 0.0
2017-Sep-19 05:04N 43°26' E 004°54'0 0.0
2017-Sep-19 04:45N 43°26' E 004°54'0 0.0
2017-Sep-19 04:23N 43°26' E 004°54'0 0.0
2017-Sep-19 03:57N 43°26' E 004°54'2 5.5
2017-Sep-19 03:31N 43°25' E 004°51'0 0.4
2017-Sep-19 03:00N 43°25' E 004°51'1 2.2
2017-Sep-19 02:31N 43°24' E 004°53'2 3.5
2017-Sep-19 02:00N 43°26' E 004°54'0 0.0
2017-Sep-19 01:23N 43°26' E 004°54'0 0.0
2017-Sep-19 01:00N 43°26' E 004°54'0 0.0
2017-Sep-19 00:27N 43°26' E 004°54'0 0.0
2017-Sep-18 23:59N 43°26' E 004°54'0 0.0
2017-Sep-18 23:27N 43°26' E 004°54'0 0.0
2017-Sep-18 22:49N 43°26' E 004°54'0 0.1
2017-Sep-18 22:30N 43°26' E 004°54'0 0.0
2017-Sep-18 21:52N 43°26' E 004°54'0 0.0
2017-Sep-18 14:56N 43°26' E 004°54'1 3.0
2017-Sep-18 14:30N 43°24' E 004°53'0 0.2
2017-Sep-18 14:00N 43°24' E 004°53'1 0.9
2017-Sep-18 12:36N 43°26' E 004°54'0 0.0
2017-Sep-18 12:30N 43°26' E 004°54'0 0.0
2017-Sep-18 11:14N 43°26' E 004°54'0 0.0
2017-Sep-18 11:00N 43°26' E 004°54'0 0.0
2017-Sep-18 10:30N 43°26' E 004°54'0 0.0
2017-Sep-18 09:49N 43°26' E 004°54'0 0.0
2017-Sep-18 09:11N 43°26' E 004°54'0 0.0
2017-Sep-18 08:54N 43°26' E 004°54'0 0.0
2017-Sep-18 08:30N 43°26' E 004°54'0 0.0
2017-Sep-18 08:00N 43°26' E 004°54'0 0.0
2017-Sep-18 07:30N 43°26' E 004°54'0 0.0
2017-Sep-18 07:00N 43°26' E 004°54'0 0.0
2017-Sep-18 06:30N 43°26' E 004°54'0 0.0
2017-Sep-18 05:57N 43°26' E 004°54'0 0.0
2017-Sep-18 05:30N 43°26' E 004°54'0 0.0
2017-Sep-18 05:00N 43°26' E 004°54'0 0.0
2017-Sep-18 04:30N 43°26' E 004°54'0 0.0
2017-Sep-18 03:59N 43°26' E 004°54'0 0.0
2017-Sep-18 03:27N 43°26' E 004°54'0 0.0
2017-Sep-18 02:53N 43°26' E 004°54'0 0.0
2017-Sep-18 02:25N 43°26' E 004°54'0 0.0
2017-Sep-18 01:59N 43°26' E 004°54'0 0.0
2017-Sep-18 01:30N 43°26' E 004°54'0 0.0
2017-Sep-18 01:00N 43°26' E 004°54'0 0.0
2017-Sep-18 00:26N 43°26' E 004°54'0 0.0
2017-Sep-18 00:00N 43°26' E 004°54'2 3.9
2017-Sep-17 23:27N 43°24' E 004°51'1 1.5
2017-Sep-17 23:00N 43°25' E 004°51'2 3.6
2017-Sep-17 22:30N 43°25' E 004°53'1 1.8
2017-Sep-17 22:00N 43°26' E 004°54'0 0.0
2017-Sep-17 21:30N 43°26' E 004°54'0 0.0
2017-Sep-17 21:00N 43°26' E 004°54'0 0.0
2017-Sep-17 20:29N 43°26' E 004°54'0 0.0
2017-Sep-17 20:00N 43°26' E 004°54'0 0.0
2017-Sep-17 19:29N 43°26' E 004°54'0 0.0
2017-Sep-17 18:59N 43°26' E 004°54'0 0.0
2017-Sep-17 18:30N 43°26' E 004°54'0 0.0
2017-Sep-17 18:00N 43°26' E 004°54'0 0.0
2017-Sep-17 17:29N 43°26' E 004°54'0 0.0
2017-Sep-17 16:59N 43°26' E 004°54'0 0.0
2017-Sep-17 16:29N 43°26' E 004°54'0 0.0
2017-Sep-17 15:46N 43°26' E 004°54'0 0.0
2017-Sep-17 15:29N 43°26' E 004°54'0 0.0
2017-Sep-17 14:59N 43°26' E 004°54'0 0.0
2017-Sep-17 14:15N 43°26' E 004°54'0 0.0
2017-Sep-17 14:00N 43°26' E 004°54'0 0.0
2017-Sep-17 13:29N 43°26' E 004°54'0 0.0
2017-Sep-17 12:58N 43°26' E 004°54'0 0.0
2017-Sep-17 12:28N 43°26' E 004°54'0 0.0
2017-Sep-17 12:00N 43°26' E 004°54'0 0.0
2017-Sep-17 11:29N 43°26' E 004°54'0 0.0
2017-Sep-17 10:59N 43°26' E 004°54'0 0.0
2017-Sep-17 10:30N 43°26' E 004°54'0 0.1
2017-Sep-17 10:00N 43°26' E 004°54'1 2.5
2017-Sep-17 09:30N 43°24' E 004°53'1 2.6
2017-Sep-17 09:01N 43°24' E 004°55'1 2.0
2017-Sep-17 08:30N 43°24' E 004°54'0 0.9
2017-Sep-17 08:01N 43°24' E 004°53'0 0.0
2017-Sep-17 07:30N 43°24' E 004°53'1 2.3
2017-Sep-17 06:58N 43°26' E 004°54'0 0.0
2017-Sep-17 06:30N 43°26' E 004°54'0 0.0
2017-Sep-17 06:00N 43°26' E 004°54'0 0.0
2017-Sep-17 05:30N 43°26' E 004°54'0 0.0
2017-Sep-17 04:58N 43°26' E 004°54'0 0.0
2017-Sep-17 04:30N 43°26' E 004°54'0 0.0
2017-Sep-17 04:00N 43°26' E 004°54'0 0.0
2017-Sep-17 03:25N 43°26' E 004°54'0 0.0
2017-Sep-17 02:57N 43°26' E 004°54'0 0.0
2017-Sep-17 02:28N 43°26' E 004°54'0 0.0
2017-Sep-17 01:54N 43°26' E 004°54'2 4.4
2017-Sep-17 01:30N 43°24' E 004°53'2 3.2
2017-Sep-17 01:00N 43°25' E 004°51'2 4.5
2017-Sep-17 00:30N 43°26' E 004°54'0 0.2
2017-Sep-16 23:49N 43°26' E 004°54'0 0.0
2017-Sep-16 23:29N 43°26' E 004°54'0 0.0
2017-Sep-16 22:59N 43°26' E 004°54'0 0.0
2017-Sep-16 22:24N 43°26' E 004°54'0 0.0
2017-Sep-16 21:58N 43°26' E 004°54'0 0.0
2017-Sep-16 21:28N 43°26' E 004°54'0 0.0
2017-Sep-16 20:58N 43°26' E 004°54'0 0.0
2017-Sep-16 20:30N 43°26' E 004°54'0 0.0
2017-Sep-16 19:59N 43°26' E 004°54'1 2.4
2017-Sep-16 19:30N 43°25' E 004°52'0 0.7
2017-Sep-16 18:59N 43°26' E 004°53'1 2.1
2017-Sep-16 18:30N 43°26' E 004°54'0 0.0
2017-Sep-16 18:00N 43°26' E 004°54'0 0.0
2017-Sep-16 17:29N 43°26' E 004°54'0 0.0
2017-Sep-16 17:00N 43°26' E 004°54'0 0.0
2017-Sep-16 16:30N 43°26' E 004°54'0 0.0
2017-Sep-16 16:00N 43°26' E 004°54'0 0.0
2017-Sep-16 15:30N 43°26' E 004°54'0 0.0
2017-Sep-16 15:00N 43°26' E 004°54'0 0.0
2017-Sep-16 14:30N 43°26' E 004°54'0 0.0
2017-Sep-16 14:00N 43°26' E 004°54'0 0.0
2017-Sep-16 13:25N 43°26' E 004°54'0 0.0
2017-Sep-16 12:58N 43°26' E 004°54'0 0.0
2017-Sep-16 12:30N 43°26' E 004°54'0 0.0
2017-Sep-16 11:51N 43°26' E 004°54'0 0.0
2017-Sep-16 11:30N 43°26' E 004°54'0 0.0
2017-Sep-16 10:59N 43°26' E 004°54'0 0.0
2017-Sep-16 10:29N 43°26' E 004°54'0 0.0
2017-Sep-16 09:58N 43°26' E 004°54'0 0.0
2017-Sep-16 09:28N 43°26' E 004°54'0 0.0
2017-Sep-16 08:59N 43°26' E 004°54'0 0.0
2017-Sep-16 08:29N 43°26' E 004°54'0 0.0
2017-Sep-16 07:59N 43°26' E 004°54'0 0.0
2017-Sep-16 07:30N 43°26' E 004°54'0 0.0
2017-Sep-16 06:59N 43°26' E 004°54'0 0.0
2017-Sep-16 06:30N 43°26' E 004°54'0 0.0
2017-Sep-16 06:00N 43°26' E 004°54'0 0.0
2017-Sep-16 05:30N 43°26' E 004°54'0 0.0
2017-Sep-16 05:00N 43°26' E 004°54'0 0.0
2017-Sep-16 04:30N 43°26' E 004°54'0 0.0
2017-Sep-16 04:00N 43°26' E 004°54'0 0.0
2017-Sep-16 03:29N 43°26' E 004°54'0 0.0
2017-Sep-16 03:00N 43°26' E 004°54'0 0.0
2017-Sep-16 02:30N 43°26' E 004°54'0 0.0
2017-Sep-16 02:00N 43°26' E 004°54'0 0.0
2017-Sep-16 01:25N 43°26' E 004°54'0 0.0
2017-Sep-16 01:00N 43°26' E 004°54'1 2.1
2017-Sep-16 00:30N 43°25' E 004°53'2 3.1
2017-Sep-16 00:01N 43°25' E 004°51'0 0.8
2017-Sep-15 23:30N 43°24' E 004°51'1 2.7
2017-Sep-15 23:01N 43°24' E 004°53'2 3.2
2017-Sep-15 22:30N 43°26' E 004°54'0 0.0
2017-Sep-15 21:58N 43°26' E 004°54'0 0.0
2017-Sep-15 21:29N 43°26' E 004°54'0 0.0
2017-Sep-15 20:59N 43°26' E 004°54'0 0.0
2017-Sep-15 20:30N 43°26' E 004°54'0 0.0
2017-Sep-15 19:58N 43°26' E 004°54'0 0.0
2017-Sep-15 19:29N 43°26' E 004°54'0 0.0
2017-Sep-15 18:44N 43°26' E 004°54'0 0.0
2017-Sep-15 18:28N 43°26' E 004°54'0 0.0
2017-Sep-15 18:00N 43°26' E 004°54'0 0.0
2017-Sep-15 17:30N 43°26' E 004°54'0 0.0
2017-Sep-15 17:00N 43°26' E 004°54'0 0.0
2017-Sep-15 16:30N 43°26' E 004°54'0 0.0
2017-Sep-15 16:00N 43°26' E 004°54'0 0.0
2017-Sep-15 15:30N 43°26' E 004°54'0 0.0
2017-Sep-15 14:38N 43°26' E 004°54'1 5.5
2017-Sep-15 14:31N 43°25' E 004°53'1 1.6
2017-Sep-15 14:01N 43°24' E 004°53'0 0.5
2017-Sep-15 13:31N 43°24' E 004°53'1 2.6
2017-Sep-15 13:00N 43°24' E 004°55'2 4.0
2017-Sep-15 12:30N 43°26' E 004°54'0 0.0
2017-Sep-15 11:59N 43°26' E 004°54'2 5.1
2017-Sep-15 11:30N 43°25' E 004°51'0 0.1
2017-Sep-15 11:00N 43°25' E 004°51'2 4.8
2017-Sep-15 10:30N 43°26' E 004°54'0 0.0
2017-Sep-15 09:54N 43°26' E 004°54'0 1.1
2017-Sep-15 09:30N 43°25' E 004°53'0 0.3
2017-Sep-15 09:00N 43°26' E 004°53'0 0.1
2017-Sep-15 08:31N 43°26' E 004°53'0 0.8
2017-Sep-15 08:00N 43°26' E 004°54'0 0.0
2017-Sep-15 07:30N 43°26' E 004°54'0 0.0
2017-Sep-15 06:59N 43°26' E 004°54'0 0.0
2017-Sep-15 06:30N 43°26' E 004°54'0 0.0
2017-Sep-15 06:00N 43°26' E 004°54'0 0.0
2017-Sep-15 05:29N 43°26' E 004°54'0 0.0
2017-Sep-15 04:57N 43°26' E 004°54'0 0.0
2017-Sep-15 04:29N 43°26' E 004°54'0 0.0
2017-Sep-15 03:57N 43°26' E 004°54'0 0.0
2017-Sep-15 03:29N 43°26' E 004°54'0 0.0
2017-Sep-15 02:54N 43°26' E 004°54'0 0.0
2017-Sep-15 02:29N 43°26' E 004°54'0 0.0
2017-Sep-15 01:57N 43°26' E 004°54'0 0.0
2017-Sep-15 01:30N 43°26' E 004°54'0 0.0
2017-Sep-15 00:56N 43°26' E 004°54'0 0.0
2017-Sep-15 00:30N 43°26' E 004°54'0 0.0
2017-Sep-14 23:59N 43°26' E 004°54'0 0.0
2017-Sep-14 23:28N 43°26' E 004°54'0 0.0
2017-Sep-14 22:53N 43°26' E 004°54'0 0.0
2017-Sep-14 22:24N 43°26' E 004°54'0 0.0
2017-Sep-14 21:38N 43°26' E 004°54'0 0.0
2017-Sep-14 21:11N 43°26' E 004°54'0 0.0
2017-Sep-14 21:00N 43°26' E 004°54'0 0.0
2017-Sep-14 20:30N 43°26' E 004°54'0 0.0
2017-Sep-14 20:00N 43°26' E 004°54'0 0.0
2017-Sep-14 19:15N 43°26' E 004°54'0 0.0
2017-Sep-14 18:58N 43°26' E 004°54'0 0.0
2017-Sep-14 18:30N 43°26' E 004°54'0 0.0
2017-Sep-14 17:56N 43°26' E 004°54'0 0.0
2017-Sep-14 17:30N 43°26' E 004°54'0 0.0
2017-Sep-14 15:42N 43°26' E 004°54'0 0.0
2017-Sep-14 14:02N 43°26' E 004°54'0 0.0
2017-Sep-14 13:56N 43°26' E 004°54'0 0.0
2017-Sep-14 13:24N 43°26' E 004°54'0 0.0
2017-Sep-14 12:56N 43°26' E 004°54'0 0.0
2017-Sep-14 11:50N 43°26' E 004°54'0 0.0
2017-Sep-14 11:30N 43°26' E 004°54'0 0.0
2017-Sep-14 10:48N 43°26' E 004°54'0 0.0
2017-Sep-14 10:28N 43°26' E 004°54'0 0.0
2017-Sep-14 09:59N 43°26' E 004°54'0 0.0
2017-Sep-14 09:23N 43°26' E 004°54'0 0.0
2017-Sep-14 09:00N 43°26' E 004°54'0 0.0
2017-Sep-14 08:30N 43°26' E 004°54'0 0.0
2017-Sep-14 07:58N 43°26' E 004°54'0 0.0
2017-Sep-14 07:30N 43°26' E 004°54'0 0.0
2017-Sep-14 07:01N 43°26' E 004°54'0 0.0
2017-Sep-14 06:30N 43°26' E 004°54'0 0.0
2017-Sep-14 05:45N 43°26' E 004°54'0 0.1
2017-Sep-14 05:29N 43°26' E 004°54'1 2.2
2017-Sep-14 05:01N 43°26' E 004°52'2 3.7
2017-Sep-14 04:31N 43°24' E 004°54'2 3.2
2017-Sep-14 04:00N 43°26' E 004°54'0 0.0
2017-Sep-14 03:30N 43°26' E 004°54'0 0.0
2017-Sep-14 03:00N 43°26' E 004°54'0 0.0
2017-Sep-14 02:30N 43°26' E 004°54'0 0.0
2017-Sep-14 02:00N 43°26' E 004°54'0 0.0
2017-Sep-14 01:29N 43°26' E 004°54'0 0.0
2017-Sep-14 01:00N 43°26' E 004°54'0 0.0
2017-Sep-14 00:30N 43°26' E 004°54'0 0.0
2017-Sep-13 23:58N 43°26' E 004°54'0 0.0
2017-Sep-13 23:30N 43°26' E 004°54'0 0.0
2017-Sep-13 23:00N 43°26' E 004°54'0 0.0
2017-Sep-13 22:30N 43°26' E 004°54'0 0.0
2017-Sep-13 22:00N 43°26' E 004°54'0 0.0
2017-Sep-13 21:30N 43°26' E 004°54'0 0.0
2017-Sep-13 21:00N 43°26' E 004°54'0 0.0
2017-Sep-13 20:30N 43°26' E 004°54'0 0.0
2017-Sep-13 19:59N 43°26' E 004°54'0 0.0
2017-Sep-13 19:30N 43°26' E 004°54'0 0.0
2017-Sep-13 18:58N 43°26' E 004°54'0 0.0
2017-Sep-13 18:30N 43°26' E 004°54'0 0.0
2017-Sep-13 18:00N 43°26' E 004°54'0 0.0
2017-Sep-13 17:30N 43°26' E 004°54'0 0.0
2017-Sep-13 17:00N 43°26' E 004°54'0 0.0
2017-Sep-13 16:31N 43°26' E 004°54'0 0.0
2017-Sep-13 16:00N 43°26' E 004°54'0 0.0
2017-Sep-13 15:30N 43°26' E 004°54'0 0.0
2017-Sep-13 15:00N 43°26' E 004°54'0 0.0
2017-Sep-13 14:30N 43°26' E 004°54'0 0.0
2017-Sep-13 14:00N 43°26' E 004°54'0 0.0
2017-Sep-13 13:30N 43°26' E 004°54'0 0.0
2017-Sep-13 13:00N 43°26' E 004°54'0 0.0
2017-Sep-13 12:31N 43°26' E 004°54'0 0.0
2017-Sep-13 12:01N 43°26' E 004°54'0 0.0
2017-Sep-13 11:30N 43°26' E 004°54'0 0.0
2017-Sep-13 11:00N 43°26' E 004°54'0 0.0
2017-Sep-13 10:30N 43°26' E 004°54'0 0.0
2017-Sep-13 10:00N 43°26' E 004°54'0 0.0
2017-Sep-13 09:30N 43°26' E 004°54'0 0.0
2017-Sep-13 09:00N 43°26' E 004°54'0 0.0
2017-Sep-13 08:30N 43°26' E 004°54'0 0.0
2017-Sep-13 08:00N 43°26' E 004°54'0 0.0
2017-Sep-13 07:30N 43°26' E 004°54'0 0.0
2017-Sep-13 07:00N 43°26' E 004°54'0 0.0
2017-Sep-13 06:30N 43°26' E 004°54'0 0.0
2017-Sep-13 06:00N 43°26' E 004°54'0 0.0
2017-Sep-13 05:30N 43°26' E 004°54'0 0.0
2017-Sep-13 05:00N 43°26' E 004°54'0 0.0
2017-Sep-13 04:30N 43°26' E 004°54'0 0.0
2017-Sep-13 04:00N 43°26' E 004°54'0 0.0
2017-Sep-13 03:30N 43°26' E 004°54'0 0.0
2017-Sep-13 03:00N 43°26' E 004°54'0 0.0
2017-Sep-13 02:30N 43°26' E 004°54'0 0.0
2017-Sep-13 02:00N 43°26' E 004°54'0 0.0
2017-Sep-13 01:30N 43°26' E 004°54'0 0.0
2017-Sep-13 01:00N 43°26' E 004°54'0 0.0
2017-Sep-13 00:30N 43°26' E 004°54'2 3.9
2017-Sep-13 00:00N 43°24' E 004°52'2 3.9
2017-Sep-12 23:30N 43°25' E 004°50'2 4.6
2017-Sep-12 23:00N 43°25' E 004°53'1 1.4
2017-Sep-12 22:29N 43°26' E 004°54'0 0.0
2017-Sep-12 22:00N 43°26' E 004°54'0 0.0
2017-Sep-12 21:30N 43°26' E 004°54'0 0.0
2017-Sep-12 21:01N 43°26' E 004°54'0 0.0
2017-Sep-12 20:30N 43°26' E 004°54'2 4.0
2017-Sep-12 20:00N 43°24' E 004°52'2 4.1
2017-Sep-12 19:30N 43°26' E 004°54'0 0.0
2017-Sep-12 19:01N 43°26' E 004°54'0 0.0
2017-Sep-12 18:31N 43°26' E 004°54'0 0.0
2017-Sep-12 17:59N 43°26' E 004°54'2 3.4
2017-Sep-12 17:30N 43°24' E 004°53'2 3.3
2017-Sep-12 17:01N 43°25' E 004°51'2 4.8
2017-Sep-12 16:31N 43°26' E 004°54'0 0.0
2017-Sep-12 16:00N 43°26' E 004°54'0 0.0
2017-Sep-12 15:30N 43°26' E 004°54'0 0.0
2017-Sep-12 15:00N 43°26' E 004°54'2 3.7
2017-Sep-12 14:30N 43°24' E 004°53'2 3.5
2017-Sep-12 14:00N 43°24' E 004°55'3 5.7
2017-Sep-12 13:30N 43°24' E 004°59'0 0.0
2017-Sep-12 13:00N 43°24' E 004°59'0 0.0
2017-Sep-12 12:30N 43°24' E 004°59'0 0.0
2017-Sep-12 12:00N 43°24' E 004°59'0 0.0
2017-Sep-12 11:30N 43°24' E 004°59'0 0.0
2017-Sep-12 11:00N 43°24' E 004°59'0 0.0
2017-Sep-12 10:30N 43°24' E 004°59'0 0.0
2017-Sep-12 10:00N 43°24' E 004°59'0 0.0
2017-Sep-12 09:30N 43°24' E 004°59'0 0.0
2017-Sep-12 09:00N 43°24' E 004°59'0 0.0
2017-Sep-12 08:30N 43°24' E 004°59'0 0.0
2017-Sep-12 08:00N 43°24' E 004°59'0 0.0
2017-Sep-12 07:30N 43°24' E 004°59'0 0.0
2017-Sep-12 07:00N 43°24' E 004°59'0 0.0
2017-Sep-12 06:30N 43°24' E 004°59'0 0.0
2017-Sep-12 06:00N 43°24' E 004°59'0 0.0
2017-Sep-12 05:30N 43°24' E 004°59'0 0.0
2017-Sep-12 05:00N 43°24' E 004°59'0 0.0
2017-Sep-12 04:30N 43°24' E 004°59'0 0.0
2017-Sep-12 04:00N 43°24' E 004°59'0 0.0
2017-Sep-12 03:30N 43°24' E 004°59'0 0.0
2017-Sep-12 03:00N 43°24' E 004°59'1 1.2
2017-Sep-12 02:31N 43°24' E 004°60'1 1.2
2017-Sep-12 02:00N 43°24' E 004°59'0 0.0
2017-Sep-12 01:30N 43°24' E 004°59'  

Dump ship's entire track history